Terminal Aerodrome Forecast
Issued by NWS

Home | Current Version | Previous Version | Text Only | Print | Product List | Glossary Off
Versions: 1 2 3 4 5 6 7 8 9 10 11 12 13 14 15

000
FTUS43 KMPX 270500
TAFRWF
TAF
KRWF 270520Z 2706/2806 27008KT P6SM SCT090
     FM271000 29012G16KT P6SM SCT050 BKN090
     FM271500 32015G22KT P6SM VCSH BKN035 OVC060
     FM271900 33014G20KT P6SM -SHRA SCT030 BKN040
     FM280000 34011KT P6SM VCSH BKN045=

USA.gov is the U.S. government's official web portal to all federal, state and local government web resources and services.